sensor_id;sensor_type;location;lat;lon;timestamp;temperature;humidity
25248;DHT22;13191;47.472;11.214;2023-05-13T00:01:24;10.80;99.90
25248;DHT22;13191;47.472;11.214;2023-05-13T00:03:50;10.70;99.90
25248;DHT22;13191;47.472;11.214;2023-05-13T00:06:15;10.80;99.90
25248;DHT22;13191;47.472;11.214;2023-05-13T00:08:41;10.80;99.90
25248;DHT22;13191;47.472;11.214;2023-05-13T00:11:06;10.70;99.90
25248;DHT22;13191;47.472;11.214;2023-05-13T00:13:32;10.70;99.90
25248;DHT22;13191;47.472;11.214;2023-05-13T00:15:58;10.60;99.90
25248;DHT22;13191;47.472;11.214;2023-05-13T00:18:23;10.50;99.90
25248;DHT22;13191;47.472;11.214;2023-05-13T00:20:49;10.60;99.90
25248;DHT22;13191;47.472;11.214;2023-05-13T00:23:14;10.50;99.90
25248;DHT22;13191;47.472;11.214;2023-05-13T00:25:40;10.50;99.90
25248;DHT22;13191;47.472;11.214;2023-05-13T00:28:06;10.60;99.90
25248;DHT22;13191;47.472;11.214;2023-05-13T00:30:32;10.60;99.90
25248;DHT22;13191;47.472;11.214;2023-05-13T00:32:58;10.60;99.90
25248;DHT22;13191;47.472;11.214;2023-05-13T00:35:23;10.50;99.90
25248;DHT22;13191;47.472;11.214;2023-05-13T00:37:49;10.40;99.90
25248;DHT22;13191;47.472;11.214;2023-05-13T00:40:22;10.40;99.90
25248;DHT22;13191;47.472;11.214;2023-05-13T00:42:48;10.40;99.90
25248;DHT22;13191;47.472;11.214;2023-05-13T00:45:13;10.40;99.90
25248;DHT22;13191;47.472;11.214;2023-05-13T00:47:39;10.40;99.90
25248;DHT22;13191;47.472;11.214;2023-05-13T00:50:06;10.40;99.90
25248;DHT22;13191;47.472;11.214;2023-05-13T00:52:31;10.40;99.90
25248;DHT22;13191;47.472;11.214;2023-05-13T00:54:57;10.40;99.90
25248;DHT22;13191;47.472;11.214;2023-05-13T00:57:23;10.50;99.90
25248;DHT22;13191;47.472;11.214;2023-05-13T00:59:48;10.50;99.90
25248;DHT22;13191;47.472;11.214;2023-05-13T01:02:30;10.50;99.90
25248;DHT22;13191;47.472;11.214;2023-05-13T01:07:33;10.40;99.90
25248;DHT22;13191;47.472;11.214;2023-05-13T01:10:05;10.40;99.90
25248;DHT22;13191;47.472;11.214;2023-05-13T01:12:37;10.40;99.90
25248;DHT22;13191;47.472;11.214;2023-05-13T01:15:08;10.40;99.90
25248;DHT22;13191;47.472;11.214;2023-05-13T01:17:39;10.40;99.90
25248;DHT22;13191;47.472;11.214;2023-05-13T01:20:06;10.50;99.90
25248;DHT22;13191;47.472;11.214;2023-05-13T01:22:32;10.40;99.90
25248;DHT22;13191;47.472;11.214;2023-05-13T01:24:58;10.40;99.90
25248;DHT22;13191;47.472;11.214;2023-05-13T01:27:23;10.40;99.90
25248;DHT22;13191;47.472;11.214;2023-05-13T01:29:49;10.40;99.90
25248;DHT22;13191;47.472;11.214;2023-05-13T01:32:14;10.40;99.90
25248;DHT22;13191;47.472;11.214;2023-05-13T01:34:40;10.40;99.90
25248;DHT22;13191;47.472;11.214;2023-05-13T01:37:07;10.40;99.90
25248;DHT22;13191;47.472;11.214;2023-05-13T01:39:32;10.30;99.90
25248;DHT22;13191;47.472;11.214;2023-05-13T01:41:58;10.30;99.90
25248;DHT22;13191;47.472;11.214;2023-05-13T01:44:23;10.30;99.90
25248;DHT22;13191;47.472;11.214;2023-05-13T01:46:49;10.30;99.90
25248;DHT22;13191;47.472;11.214;2023-05-13T01:49:15;10.30;99.90
25248;DHT22;13191;47.472;11.214;2023-05-13T01:51:40;10.30;99.90
25248;DHT22;13191;47.472;11.214;2023-05-13T01:54:06;10.40;99.90
25248;DHT22;13191;47.472;11.214;2023-05-13T01:56:31;10.30;99.90
25248;DHT22;13191;47.472;11.214;2023-05-13T01:58:57;10.30;99.90
25248;DHT22;13191;47.472;11.214;2023-05-13T02:01:22;10.30;99.90
25248;DHT22;13191;47.472;11.214;2023-05-13T02:03:48;10.20;99.90
25248;DHT22;13191;47.472;11.214;2023-05-13T02:06:13;10.30;99.90
25248;DHT22;13191;47.472;11.214;2023-05-13T02:08:39;10.20;99.90
25248;DHT22;13191;47.472;11.214;2023-05-13T02:11:04;10.20;99.90
25248;DHT22;13191;47.472;11.214;2023-05-13T02:13:30;10.20;99.90
25248;DHT22;13191;47.472;11.214;2023-05-13T02:15:55;10.20;99.90
25248;DHT22;13191;47.472;11.214;2023-05-13T02:18:21;10.20;99.90
25248;DHT22;13191;47.472;11.214;2023-05-13T02:20:46;10.20;99.90
25248;DHT22;13191;47.472;11.214;2023-05-13T02:23:12;10.20;99.90
25248;DHT22;13191;47.472;11.214;2023-05-13T02:25:40;10.20;99.90
25248;DHT22;13191;47.472;11.214;2023-05-13T02:28:06;10.20;99.90
25248;DHT22;13191;47.472;11.214;2023-05-13T02:30:31;10.20;99.90
25248;DHT22;13191;47.472;11.214;2023-05-13T02:32:57;10.20;99.90
25248;DHT22;13191;47.472;11.214;2023-05-13T02:35:22;10.20;99.90
25248;DHT22;13191;47.472;11.214;2023-05-13T02:37:49;10.20;99.90
25248;DHT22;13191;47.472;11.214;2023-05-13T02:40:15;10.20;99.90
25248;DHT22;13191;47.472;11.214;2023-05-13T02:42:40;10.20;99.90
25248;DHT22;13191;47.472;11.214;2023-05-13T02:45:08;10.20;99.90
25248;DHT22;13191;47.472;11.214;2023-05-13T02:47:33;10.30;99.90
25248;DHT22;13191;47.472;11.214;2023-05-13T02:49:59;10.30;99.90
25248;DHT22;13191;47.472;11.214;2023-05-13T02:52:24;10.30;99.90
25248;DHT22;13191;47.472;11.214;2023-05-13T02:54:50;10.30;99.90
25248;DHT22;13191;47.472;11.214;2023-05-13T02:57:15;10.30;99.90
25248;DHT22;13191;47.472;11.214;2023-05-13T02:59:41;10.30;99.90
25248;DHT22;13191;47.472;11.214;2023-05-13T03:02:06;10.30;99.90
25248;DHT22;13191;47.472;11.214;2023-05-13T03:04:32;10.20;99.90
25248;DHT22;13191;47.472;11.214;2023-05-13T03:06:57;10.10;99.90
25248;DHT22;13191;47.472;11.214;2023-05-13T03:09:23;10.10;99.90
25248;DHT22;13191;47.472;11.214;2023-05-13T03:11:48;10.10;99.90
25248;DHT22;13191;47.472;11.214;2023-05-13T03:14:13;10.10;99.90
25248;DHT22;13191;47.472;11.214;2023-05-13T03:16:39;10.10;99.90
25248;DHT22;13191;47.472;11.214;2023-05-13T03:19:04;10.10;99.90
25248;DHT22;13191;47.472;11.214;2023-05-13T03:21:30;10.10;99.90
25248;DHT22;13191;47.472;11.214;2023-05-13T03:23:55;10.20;99.90
25248;DHT22;13191;47.472;11.214;2023-05-13T03:26:21;10.20;99.90
25248;DHT22;13191;47.472;11.214;2023-05-13T03:28:46;10.10;99.90
25248;DHT22;13191;47.472;11.214;2023-05-13T03:31:12;10.10;99.90
25248;DHT22;13191;47.472;11.214;2023-05-13T03:33:37;10.20;99.90
25248;DHT22;13191;47.472;11.214;2023-05-13T03:36:03;10.10;99.90
25248;DHT22;13191;47.472;11.214;2023-05-13T03:38:29;10.10;99.90
25248;DHT22;13191;47.472;11.214;2023-05-13T03:40:54;10.20;99.90
25248;DHT22;13191;47.472;11.214;2023-05-13T03:43:20;10.10;99.90
25248;DHT22;13191;47.472;11.214;2023-05-13T03:45:45;10.10;99.90
25248;DHT22;13191;47.472;11.214;2023-05-13T03:48:12;10.10;99.90
25248;DHT22;13191;47.472;11.214;2023-05-13T03:50:38;10.10;99.90
25248;DHT22;13191;47.472;11.214;2023-05-13T03:53:03;10.10;99.90
25248;DHT22;13191;47.472;11.214;2023-05-13T03:55:29;10.10;99.90
25248;DHT22;13191;47.472;11.214;2023-05-13T03:57:54;10.10;99.90
25248;DHT22;13191;47.472;11.214;2023-05-13T04:00:20;10.10;99.90
25248;DHT22;13191;47.472;11.214;2023-05-13T04:02:45;10.10;99.90
25248;DHT22;13191;47.472;11.214;2023-05-13T04:05:11;10.10;99.90
25248;DHT22;13191;47.472;11.214;2023-05-13T04:07:38;10.10;99.90
25248;DHT22;13191;47.472;11.214;2023-05-13T04:10:03;10.10;99.90
25248;DHT22;13191;47.472;11.214;2023-05-13T04:12:29;10.10;99.90
25248;DHT22;13191;47.472;11.214;2023-05-13T04:14:55;10.20;99.90
25248;DHT22;13191;47.472;11.214;2023-05-13T04:17:20;10.10;99.90
25248;DHT22;13191;47.472;11.214;2023-05-13T04:19:46;10.10;99.90
25248;DHT22;13191;47.472;11.214;2023-05-13T04:22:11;10.10;99.90
25248;DHT22;13191;47.472;11.214;2023-05-13T04:24:37;10.10;99.90
25248;DHT22;13191;47.472;11.214;2023-05-13T04:27:03;10.10;99.90
25248;DHT22;13191;47.472;11.214;2023-05-13T04:29:28;10.10;99.90
25248;DHT22;13191;47.472;11.214;2023-05-13T04:31:54;10.20;99.90
25248;DHT22;13191;47.472;11.214;2023-05-13T04:34:19;10.10;99.90
25248;DHT22;13191;47.472;11.214;2023-05-13T04:36:45;10.20;99.90
25248;DHT22;13191;47.472;11.214;2023-05-13T04:39:12;10.10;99.90
25248;DHT22;13191;47.472;11.214;2023-05-13T04:41:38;10.10;99.90
25248;DHT22;13191;47.472;11.214;2023-05-13T04:44:03;10.10;99.90
25248;DHT22;13191;47.472;11.214;2023-05-13T04:46:31;10.10;99.90
25248;DHT22;13191;47.472;11.214;2023-05-13T04:48:56;10.10;99.90
25248;DHT22;13191;47.472;11.214;2023-05-13T04:51:22;10.10;99.90
25248;DHT22;13191;47.472;11.214;2023-05-13T04:53:47;10.10;99.90
25248;DHT22;13191;47.472;11.214;2023-05-13T04:56:13;10.10;99.90
25248;DHT22;13191;47.472;11.214;2023-05-13T04:58:38;10.00;99.90
25248;DHT22;13191;47.472;11.214;2023-05-13T05:01:04;10.00;99.90
25248;DHT22;13191;47.472;11.214;2023-05-13T05:03:29;10.00;99.90
25248;DHT22;13191;47.472;11.214;2023-05-13T05:05:55;10.00;99.90
25248;DHT22;13191;47.472;11.214;2023-05-13T05:08:20;10.00;99.90
25248;DHT22;13191;47.472;11.214;2023-05-13T05:10:46;10.00;99.90
25248;DHT22;13191;47.472;11.214;2023-05-13T05:13:11;10.10;99.90
25248;DHT22;13191;47.472;11.214;2023-05-13T05:15:37;10.10;99.90
25248;DHT22;13191;47.472;11.214;2023-05-13T05:18:02;10.10;99.90
25248;DHT22;13191;47.472;11.214;2023-05-13T05:20:30;10.20;99.90
25248;DHT22;13191;47.472;11.214;2023-05-13T05:22:55;10.20;99.90
25248;DHT22;13191;47.472;11.214;2023-05-13T05:25:21;10.20;99.90
25248;DHT22;13191;47.472;11.214;2023-05-13T05:27:46;10.20;99.90
25248;DHT22;13191;47.472;11.214;2023-05-13T05:30:12;10.20;99.90
25248;DHT22;13191;47.472;11.214;2023-05-13T05:32:38;10.20;99.90
25248;DHT22;13191;47.472;11.214;2023-05-13T05:35:03;10.30;99.90
25248;DHT22;13191;47.472;11.214;2023-05-13T05:37:29;10.30;99.90
25248;DHT22;13191;47.472;11.214;2023-05-13T05:39:54;10.30;99.90
25248;DHT22;13191;47.472;11.214;2023-05-13T05:42:20;10.30;99.90
25248;DHT22;13191;47.472;11.214;2023-05-13T05:44:45;10.30;99.90
25248;DHT22;13191;47.472;11.214;2023-05-13T05:47:11;10.30;99.90
25248;DHT22;13191;47.472;11.214;2023-05-13T05:49:37;10.30;99.90
25248;DHT22;13191;47.472;11.214;2023-05-13T05:52:02;10.30;99.90
25248;DHT22;13191;47.472;11.214;2023-05-13T05:54:28;10.30;99.90
25248;DHT22;13191;47.472;11.214;2023-05-13T05:56:53;10.30;99.90
25248;DHT22;13191;47.472;11.214;2023-05-13T05:59:19;10.40;99.90
25248;DHT22;13191;47.472;11.214;2023-05-13T06:01:44;10.40;99.90
25248;DHT22;13191;47.472;11.214;2023-05-13T06:04:10;10.50;99.90
25248;DHT22;13191;47.472;11.214;2023-05-13T06:06:36;10.40;99.90
25248;DHT22;13191;47.472;11.214;2023-05-13T06:09:03;10.50;99.90
25248;DHT22;13191;47.472;11.214;2023-05-13T06:11:29;10.50;99.90
25248;DHT22;13191;47.472;11.214;2023-05-13T06:13:54;10.60;99.90
25248;DHT22;13191;47.472;11.214;2023-05-13T06:16:22;10.50;99.90
25248;DHT22;13191;47.472;11.214;2023-05-13T06:18:47;10.50;99.90
25248;DHT22;13191;47.472;11.214;2023-05-13T06:21:13;10.60;99.90
25248;DHT22;13191;47.472;11.214;2023-05-13T06:23:38;10.60;99.90
25248;DHT22;13191;47.472;11.214;2023-05-13T06:26:04;10.60;99.90
25248;DHT22;13191;47.472;11.214;2023-05-13T06:28:30;10.70;99.90
25248;DHT22;13191;47.472;11.214;2023-05-13T06:30:55;10.70;99.90
25248;DHT22;13191;47.472;11.214;2023-05-13T06:33:21;10.80;99.90
25248;DHT22;13191;47.472;11.214;2023-05-13T06:35:47;10.80;99.90
25248;DHT22;13191;47.472;11.214;2023-05-13T06:38:16;10.80;99.90
25248;DHT22;13191;47.472;11.214;2023-05-13T06:40:43;10.80;99.90
25248;DHT22;13191;47.472;11.214;2023-05-13T06:43:10;10.80;99.90
25248;DHT22;13191;47.472;11.214;2023-05-13T06:45:40;10.80;99.90
25248;DHT22;13191;47.472;11.214;2023-05-13T06:48:06;10.80;99.90
25248;DHT22;13191;47.472;11.214;2023-05-13T06:50:32;10.90;99.90
25248;DHT22;13191;47.472;11.214;2023-05-13T06:52:57;10.90;99.90
25248;DHT22;13191;47.472;11.214;2023-05-13T06:55:23;10.90;99.90
25248;DHT22;13191;47.472;11.214;2023-05-13T06:57:48;11.00;99.90
25248;DHT22;13191;47.472;11.214;2023-05-13T07:00:14;11.00;99.90
25248;DHT22;13191;47.472;11.214;2023-05-13T07:02:40;11.10;99.90
25248;DHT22;13191;47.472;11.214;2023-05-13T07:05:06;11.10;99.90
25248;DHT22;13191;47.472;11.214;2023-05-13T07:07:31;11.20;99.90
25248;DHT22;13191;47.472;11.214;2023-05-13T07:09:57;11.20;99.90
25248;DHT22;13191;47.472;11.214;2023-05-13T07:12:22;11.30;99.90
25248;DHT22;13191;47.472;11.214;2023-05-13T07:14:48;11.30;99.90
25248;DHT22;13191;47.472;11.214;2023-05-13T07:17:13;11.30;99.90
25248;DHT22;13191;47.472;11.214;2023-05-13T07:19:39;11.30;99.90
25248;DHT22;13191;47.472;11.214;2023-05-13T07:22:04;11.40;99.90
25248;DHT22;13191;47.472;11.214;2023-05-13T07:24:29;11.40;99.90
25248;DHT22;13191;47.472;11.214;2023-05-13T07:26:55;11.40;99.90
25248;DHT22;13191;47.472;11.214;2023-05-13T07:29:20;11.50;99.90
25248;DHT22;13191;47.472;11.214;2023-05-13T07:31:46;11.50;99.90
25248;DHT22;13191;47.472;11.214;2023-05-13T07:34:12;11.60;99.90
25248;DHT22;13191;47.472;11.214;2023-05-13T07:36:37;11.60;99.90
25248;DHT22;13191;47.472;11.214;2023-05-13T07:39:03;11.60;99.90
25248;DHT22;13191;47.472;11.214;2023-05-13T07:41:28;11.70;99.90
25248;DHT22;13191;47.472;11.214;2023-05-13T07:43:54;11.70;99.90
25248;DHT22;13191;47.472;11.214;2023-05-13T07:46:19;11.80;99.90
25248;DHT22;13191;47.472;11.214;2023-05-13T07:48:45;11.80;99.90
25248;DHT22;13191;47.472;11.214;2023-05-13T07:51:10;11.90;99.90
25248;DHT22;13191;47.472;11.214;2023-05-13T07:53:35;12.00;99.90
25248;DHT22;13191;47.472;11.214;2023-05-13T07:56:01;12.00;99.90
25248;DHT22;13191;47.472;11.214;2023-05-13T07:58:27;12.10;99.90
25248;DHT22;13191;47.472;11.214;2023-05-13T08:00:52;12.10;99.90
25248;DHT22;13191;47.472;11.214;2023-05-13T08:03:18;12.20;99.90
25248;DHT22;13191;47.472;11.214;2023-05-13T08:05:43;12.30;99.90
25248;DHT22;13191;47.472;11.214;2023-05-13T08:08:09;12.30;99.90
25248;DHT22;13191;47.472;11.214;2023-05-13T08:10:34;12.40;99.90
25248;DHT22;13191;47.472;11.214;2023-05-13T08:13:23;12.50;99.90
25248;DHT22;13191;47.472;11.214;2023-05-13T08:15:51;12.50;99.90
25248;DHT22;13191;47.472;11.214;2023-05-13T08:18:18;12.50;99.90
25248;DHT22;13191;47.472;11.214;2023-05-13T08:20:43;12.50;99.90
25248;DHT22;13191;47.472;11.214;2023-05-13T08:23:09;12.70;99.90
25248;DHT22;13191;47.472;11.214;2023-05-13T08:25:34;12.70;99.90
25248;DHT22;13191;47.472;11.214;2023-05-13T08:28:00;12.70;99.90
25248;DHT22;13191;47.472;11.214;2023-05-13T08:30:26;12.80;99.90
25248;DHT22;13191;47.472;11.214;2023-05-13T08:32:51;12.80;99.90
25248;DHT22;13191;47.472;11.214;2023-05-13T08:35:17;12.90;99.90
25248;DHT22;13191;47.472;11.214;2023-05-13T08:37:42;12.90;99.90
25248;DHT22;13191;47.472;11.214;2023-05-13T08:40:08;13.00;99.90
25248;DHT22;13191;47.472;11.214;2023-05-13T08:42:35;13.00;99.90
25248;DHT22;13191;47.472;11.214;2023-05-13T08:45:02;12.90;99.90
25248;DHT22;13191;47.472;11.214;2023-05-13T08:47:42;12.80;99.90
25248;DHT22;13191;47.472;11.214;2023-05-13T08:50:10;12.70;99.90
25248;DHT22;13191;47.472;11.214;2023-05-13T08:52:36;12.50;99.90
25248;DHT22;13191;47.472;11.214;2023-05-13T08:55:01;12.30;99.90
25248;DHT22;13191;47.472;11.214;2023-05-13T08:57:28;12.30;99.90
25248;DHT22;13191;47.472;11.214;2023-05-13T08:59:54;12.30;99.90
25248;DHT22;13191;47.472;11.214;2023-05-13T09:02:19;12.30;99.90
25248;DHT22;13191;47.472;11.214;2023-05-13T09:04:45;12.10;99.90
25248;DHT22;13191;47.472;11.214;2023-05-13T09:07:12;12.10;99.90
25248;DHT22;13191;47.472;11.214;2023-05-13T09:09:38;12.10;99.90
25248;DHT22;13191;47.472;11.214;2023-05-13T09:12:03;12.20;99.90
25248;DHT22;13191;47.472;11.214;2023-05-13T09:14:29;12.30;99.90
25248;DHT22;13191;47.472;11.214;2023-05-13T09:16:58;12.40;99.90
25248;DHT22;13191;47.472;11.214;2023-05-13T09:19:23;12.40;99.90
25248;DHT22;13191;47.472;11.214;2023-05-13T09:21:49;12.50;99.90
25248;DHT22;13191;47.472;11.214;2023-05-13T09:24:16;12.60;99.90
25248;DHT22;13191;47.472;11.214;2023-05-13T09:26:48;12.50;99.90
25248;DHT22;13191;47.472;11.214;2023-05-13T09:29:15;12.50;99.90
25248;DHT22;13191;47.472;11.214;2023-05-13T09:31:41;12.60;99.90
25248;DHT22;13191;47.472;11.214;2023-05-13T09:34:25;12.60;99.90
25248;DHT22;13191;47.472;11.214;2023-05-13T09:36:55;12.60;99.90
25248;DHT22;13191;47.472;11.214;2023-05-13T09:39:20;12.70;99.90
25248;DHT22;13191;47.472;11.214;2023-05-13T09:41:46;12.60;99.90
25248;DHT22;13191;47.472;11.214;2023-05-13T09:44:12;12.70;99.90
25248;DHT22;13191;47.472;11.214;2023-05-13T09:46:37;12.70;99.90
25248;DHT22;13191;47.472;11.214;2023-05-13T09:49:03;12.70;99.90
25248;DHT22;13191;47.472;11.214;2023-05-13T09:51:28;12.70;99.90
25248;DHT22;13191;47.472;11.214;2023-05-13T09:54:01;12.60;99.90
25248;DHT22;13191;47.472;11.214;2023-05-13T09:56:27;12.60;99.90
25248;DHT22;13191;47.472;11.214;2023-05-13T09:58:55;12.50;99.90
25248;DHT22;13191;47.472;11.214;2023-05-13T10:01:20;12.50;99.90
25248;DHT22;13191;47.472;11.214;2023-05-13T10:03:46;12.50;99.90
25248;DHT22;13191;47.472;11.214;2023-05-13T10:06:14;12.40;99.90
25248;DHT22;13191;47.472;11.214;2023-05-13T10:08:41;12.40;99.90
25248;DHT22;13191;47.472;11.214;2023-05-13T10:11:08;12.40;99.90
25248;DHT22;13191;47.472;11.214;2023-05-13T10:13:33;12.40;99.90
25248;DHT22;13191;47.472;11.214;2023-05-13T10:16:00;12.40;99.90
25248;DHT22;13191;47.472;11.214;2023-05-13T10:18:25;12.30;99.90
25248;DHT22;13191;47.472;11.214;2023-05-13T10:20:53;12.30;99.90
25248;DHT22;13191;47.472;11.214;2023-05-13T10:23:19;12.20;99.90
25248;DHT22;13191;47.472;11.214;2023-05-13T10:25:46;12.10;99.90
25248;DHT22;13191;47.472;11.214;2023-05-13T10:28:11;12.20;99.90
25248;DHT22;13191;47.472;11.214;2023-05-13T10:30:38;12.30;99.90
25248;DHT22;13191;47.472;11.214;2023-05-13T10:33:03;12.30;99.90
25248;DHT22;13191;47.472;11.214;2023-05-13T10:35:30;12.30;99.90
25248;DHT22;13191;47.472;11.214;2023-05-13T10:38:00;12.30;99.90
25248;DHT22;13191;47.472;11.214;2023-05-13T10:40:41;12.30;99.90
25248;DHT22;13191;47.472;11.214;2023-05-13T10:43:21;12.30;99.90
25248;DHT22;13191;47.472;11.214;2023-05-13T10:45:55;12.30;99.90
25248;DHT22;13191;47.472;11.214;2023-05-13T10:48:20;12.30;99.90
25248;DHT22;13191;47.472;11.214;2023-05-13T10:50:50;12.30;99.90
25248;DHT22;13191;47.472;11.214;2023-05-13T10:53:18;12.30;99.90
25248;DHT22;13191;47.472;11.214;2023-05-13T10:55:45;12.30;99.90
25248;DHT22;13191;47.472;11.214;2023-05-13T10:58:14;12.40;99.90
25248;DHT22;13191;47.472;11.214;2023-05-13T11:00:40;12.40;99.90
25248;DHT22;13191;47.472;11.214;2023-05-13T11:03:07;12.50;99.90
25248;DHT22;13191;47.472;11.214;2023-05-13T11:05:32;12.40;99.90
25248;DHT22;13191;47.472;11.214;2023-05-13T11:07:59;12.30;99.90
25248;DHT22;13191;47.472;11.214;2023-05-13T11:10:27;12.30;99.90
25248;DHT22;13191;47.472;11.214;2023-05-13T11:18:14;11.80;99.90
25248;DHT22;13191;47.472;11.214;2023-05-13T11:20:40;11.70;99.90
25248;DHT22;13191;47.472;11.214;2023-05-13T11:23:09;11.70;99.90
25248;DHT22;13191;47.472;11.214;2023-05-13T11:25:42;11.70;99.90
25248;DHT22;13191;47.472;11.214;2023-05-13T11:28:07;11.70;99.90
25248;DHT22;13191;47.472;11.214;2023-05-13T11:30:33;11.60;99.90
25248;DHT22;13191;47.472;11.214;2023-05-13T11:32:59;11.60;99.90
25248;DHT22;13191;47.472;11.214;2023-05-13T11:35:27;11.60;99.90
25248;DHT22;13191;47.472;11.214;2023-05-13T11:37:57;11.50;99.90
25248;DHT22;13191;47.472;11.214;2023-05-13T11:40:23;11.40;99.90
25248;DHT22;13191;47.472;11.214;2023-05-13T11:42:49;11.50;99.90
25248;DHT22;13191;47.472;11.214;2023-05-13T11:45:18;11.60;99.90
25248;DHT22;13191;47.472;11.214;2023-05-13T11:47:44;11.60;99.90
25248;DHT22;13191;47.472;11.214;2023-05-13T11:50:19;11.80;99.90
25248;DHT22;13191;47.472;11.214;2023-05-13T11:52:52;11.70;99.90
25248;DHT22;13191;47.472;11.214;2023-05-13T11:55:28;11.70;99.90
25248;DHT22;13191;47.472;11.214;2023-05-13T11:57:54;11.60;99.90
25248;DHT22;13191;47.472;11.214;2023-05-13T12:00:27;11.10;99.90
25248;DHT22;13191;47.472;11.214;2023-05-13T12:02:53;10.80;99.90
25248;DHT22;13191;47.472;11.214;2023-05-13T12:05:19;10.40;99.90
25248;DHT22;13191;47.472;11.214;2023-05-13T12:07:44;10.20;99.90
25248;DHT22;13191;47.472;11.214;2023-05-13T12:10:10;10.10;99.90
25248;DHT22;13191;47.472;11.214;2023-05-13T12:12:39;10.00;99.90
25248;DHT22;13191;47.472;11.214;2023-05-13T12:15:23;10.00;99.90
25248;DHT22;13191;47.472;11.214;2023-05-13T12:17:48;9.90;99.90
25248;DHT22;13191;47.472;11.214;2023-05-13T12:27:52;10.20;99.90
25248;DHT22;13191;47.472;11.214;2023-05-13T12:30:18;10.30;99.90
25248;DHT22;13191;47.472;11.214;2023-05-13T12:32:45;10.50;99.90
25248;DHT22;13191;47.472;11.214;2023-05-13T12:35:13;10.60;99.90
25248;DHT22;13191;47.472;11.214;2023-05-13T12:37:39;10.70;99.90
25248;DHT22;13191;47.472;11.214;2023-05-13T12:40:11;10.70;99.90
25248;DHT22;13191;47.472;11.214;2023-05-13T12:42:37;10.70;99.90
25248;DHT22;13191;47.472;11.214;2023-05-13T12:45:03;10.80;99.90
25248;DHT22;13191;47.472;11.214;2023-05-13T12:47:29;10.80;99.90
25248;DHT22;13191;47.472;11.214;2023-05-13T12:49:55;10.90;99.90
25248;DHT22;13191;47.472;11.214;2023-05-13T12:52:22;11.10;99.90
25248;DHT22;13191;47.472;11.214;2023-05-13T12:54:48;11.30;99.90
25248;DHT22;13191;47.472;11.214;2023-05-13T12:57:17;11.40;99.90
25248;DHT22;13191;47.472;11.214;2023-05-13T12:59:43;11.50;99.90
25248;DHT22;13191;47.472;11.214;2023-05-13T13:02:10;11.60;99.90
25248;DHT22;13191;47.472;11.214;2023-05-13T13:04:35;11.60;99.90
25248;DHT22;13191;47.472;11.214;2023-05-13T13:07:01;11.60;99.90
25248;DHT22;13191;47.472;11.214;2023-05-13T13:09:26;11.60;99.90
25248;DHT22;13191;47.472;11.214;2023-05-13T13:11:52;11.60;99.90
25248;DHT22;13191;47.472;11.214;2023-05-13T13:14:17;11.60;99.90
25248;DHT22;13191;47.472;11.214;2023-05-13T13:16:43;11.70;99.90
25248;DHT22;13191;47.472;11.214;2023-05-13T13:19:08;11.70;99.90
25248;DHT22;13191;47.472;11.214;2023-05-13T13:21:34;11.80;99.90
25248;DHT22;13191;47.472;11.214;2023-05-13T13:23:59;11.80;99.90
25248;DHT22;13191;47.472;11.214;2023-05-13T13:26:25;11.80;99.90
25248;DHT22;13191;47.472;11.214;2023-05-13T13:28:51;11.70;99.90
25248;DHT22;13191;47.472;11.214;2023-05-13T13:31:16;11.80;99.90
25248;DHT22;13191;47.472;11.214;2023-05-13T13:33:41;11.90;99.90
25248;DHT22;13191;47.472;11.214;2023-05-13T13:36:07;12.00;99.90
25248;DHT22;13191;47.472;11.214;2023-05-13T13:38:33;12.10;99.90
25248;DHT22;13191;47.472;11.214;2023-05-13T13:40:58;12.10;99.90
25248;DHT22;13191;47.472;11.214;2023-05-13T13:43:23;12.10;99.90
25248;DHT22;13191;47.472;11.214;2023-05-13T13:45:49;12.30;99.90
25248;DHT22;13191;47.472;11.214;2023-05-13T13:48:14;12.40;99.90
25248;DHT22;13191;47.472;11.214;2023-05-13T13:50:40;12.50;99.90
25248;DHT22;13191;47.472;11.214;2023-05-13T13:53:05;12.70;99.90
25248;DHT22;13191;47.472;11.214;2023-05-13T13:55:31;12.80;99.90
25248;DHT22;13191;47.472;11.214;2023-05-13T13:57:56;12.90;99.90
25248;DHT22;13191;47.472;11.214;2023-05-13T14:00:22;12.90;99.90
25248;DHT22;13191;47.472;11.214;2023-05-13T14:02:47;12.90;99.90
25248;DHT22;13191;47.472;11.214;2023-05-13T14:05:13;13.00;99.90
25248;DHT22;13191;47.472;11.214;2023-05-13T14:07:40;13.00;99.90
25248;DHT22;13191;47.472;11.214;2023-05-13T14:10:05;13.00;99.90
25248;DHT22;13191;47.472;11.214;2023-05-13T14:12:31;12.90;99.90
25248;DHT22;13191;47.472;11.214;2023-05-13T14:14:57;12.90;99.90
25248;DHT22;13191;47.472;11.214;2023-05-13T14:17:22;12.80;99.90
25248;DHT22;13191;47.472;11.214;2023-05-13T14:19:48;12.60;99.90
25248;DHT22;13191;47.472;11.214;2023-05-13T14:22:16;12.60;99.90
25248;DHT22;13191;47.472;11.214;2023-05-13T14:24:42;12.50;99.90
25248;DHT22;13191;47.472;11.214;2023-05-13T14:27:07;12.40;99.90
25248;DHT22;13191;47.472;11.214;2023-05-13T14:29:33;12.50;99.90
25248;DHT22;13191;47.472;11.214;2023-05-13T14:31:59;12.60;99.90
25248;DHT22;13191;47.472;11.214;2023-05-13T14:34:28;12.60;99.90
25248;DHT22;13191;47.472;11.214;2023-05-13T14:36:53;12.60;99.90
25248;DHT22;13191;47.472;11.214;2023-05-13T14:39:19;12.60;99.90
25248;DHT22;13191;47.472;11.214;2023-05-13T14:41:44;12.60;99.90
25248;DHT22;13191;47.472;11.214;2023-05-13T14:44:10;12.50;99.90
25248;DHT22;13191;47.472;11.214;2023-05-13T14:46:37;12.60;99.90
25248;DHT22;13191;47.472;11.214;2023-05-13T14:49:04;12.50;99.90
25248;DHT22;13191;47.472;11.214;2023-05-13T14:51:30;12.50;99.90
25248;DHT22;13191;47.472;11.214;2023-05-13T14:53:55;12.50;99.90
25248;DHT22;13191;47.472;11.214;2023-05-13T14:56:21;12.50;99.90
25248;DHT22;13191;47.472;11.214;2023-05-13T14:58:46;12.50;99.90
25248;DHT22;13191;47.472;11.214;2023-05-13T15:01:12;12.60;99.90
25248;DHT22;13191;47.472;11.214;2023-05-13T15:03:37;12.60;99.90
25248;DHT22;13191;47.472;11.214;2023-05-13T15:06:03;12.60;99.90
25248;DHT22;13191;47.472;11.214;2023-05-13T15:08:29;12.50;99.90
25248;DHT22;13191;47.472;11.214;2023-05-13T15:10:54;12.50;99.90
25248;DHT22;13191;47.472;11.214;2023-05-13T15:13:20;12.50;99.90
25248;DHT22;13191;47.472;11.214;2023-05-13T15:15:46;12.50;99.90
25248;DHT22;13191;47.472;11.214;2023-05-13T15:18:12;12.50;99.90
25248;DHT22;13191;47.472;11.214;2023-05-13T15:20:37;12.50;99.90
25248;DHT22;13191;47.472;11.214;2023-05-13T15:23:03;12.50;99.90
25248;DHT22;13191;47.472;11.214;2023-05-13T15:25:28;12.40;99.90